sensor_id;sensor_type;location;lat;lon;timestamp;temperature;humidity
28189;DHT22;15471;51.166;4.470;2023-02-28T00:00:14;0.40;99.90
28189;DHT22;15471;51.166;4.470;2023-02-28T00:02:41;0.40;99.90
28189;DHT22;15471;51.166;4.470;2023-02-28T00:05:08;0.40;99.90
28189;DHT22;15471;51.166;4.470;2023-02-28T00:07:35;0.40;99.90
28189;DHT22;15471;51.166;4.470;2023-02-28T00:10:01;0.40;99.90
28189;DHT22;15471;51.166;4.470;2023-02-28T00:12:27;0.30;99.90
28189;DHT22;15471;51.166;4.470;2023-02-28T00:14:53;0.30;99.90
28189;DHT22;15471;51.166;4.470;2023-02-28T00:17:19;0.30;99.90
28189;DHT22;15471;51.166;4.470;2023-02-28T00:19:48;0.30;99.90
28189;DHT22;15471;51.166;4.470;2023-02-28T00:22:15;0.30;99.90
28189;DHT22;15471;51.166;4.470;2023-02-28T00:24:41;0.20;99.90
28189;DHT22;15471;51.166;4.470;2023-02-28T00:27:06;0.20;99.90
28189;DHT22;15471;51.166;4.470;2023-02-28T00:29:32;0.20;99.90
28189;DHT22;15471;51.166;4.470;2023-02-28T00:31:58;0.20;99.90
28189;DHT22;15471;51.166;4.470;2023-02-28T00:34:24;0.30;99.90
28189;DHT22;15471;51.166;4.470;2023-02-28T00:36:50;0.20;99.90
28189;DHT22;15471;51.166;4.470;2023-02-28T00:39:16;0.10;99.90
28189;DHT22;15471;51.166;4.470;2023-02-28T00:41:43;0.10;99.90
28189;DHT22;15471;51.166;4.470;2023-02-28T00:44:09;0.00;99.90
28189;DHT22;15471;51.166;4.470;2023-02-28T00:46:35;-0.10;99.90
28189;DHT22;15471;51.166;4.470;2023-02-28T00:49:01;0.00;99.90
28189;DHT22;15471;51.166;4.470;2023-02-28T00:51:26;-0.10;99.90
28189;DHT22;15471;51.166;4.470;2023-02-28T00:53:52;-0.10;99.90
28189;DHT22;15471;51.166;4.470;2023-02-28T00:56:18;-0.10;99.90
28189;DHT22;15471;51.166;4.470;2023-02-28T00:58:44;-0.10;99.90
28189;DHT22;15471;51.166;4.470;2023-02-28T01:01:09;0.00;99.90
28189;DHT22;15471;51.166;4.470;2023-02-28T01:03:37;-0.10;99.90
28189;DHT22;15471;51.166;4.470;2023-02-28T01:06:04;-0.10;99.90
28189;DHT22;15471;51.166;4.470;2023-02-28T01:08:30;-0.10;99.90
28189;DHT22;15471;51.166;4.470;2023-02-28T01:10:56;-0.10;99.90
28189;DHT22;15471;51.166;4.470;2023-02-28T01:13:22;-0.10;99.90
28189;DHT22;15471;51.166;4.470;2023-02-28T01:15:54;-0.10;99.90
28189;DHT22;15471;51.166;4.470;2023-02-28T01:18:21;-0.10;99.90
28189;DHT22;15471;51.166;4.470;2023-02-28T01:20:47;-0.10;99.90
28189;DHT22;15471;51.166;4.470;2023-02-28T01:23:13;-0.10;99.90
28189;DHT22;15471;51.166;4.470;2023-02-28T01:25:39;-0.10;99.90
28189;DHT22;15471;51.166;4.470;2023-02-28T01:28:06;-0.10;99.90
28189;DHT22;15471;51.166;4.470;2023-02-28T01:30:32;-0.10;99.90
28189;DHT22;15471;51.166;4.470;2023-02-28T01:32:58;-0.10;99.90
28189;DHT22;15471;51.166;4.470;2023-02-28T01:35:25;-0.10;99.90
28189;DHT22;15471;51.166;4.470;2023-02-28T01:37:50;-0.10;99.90
28189;DHT22;15471;51.166;4.470;2023-02-28T01:40:16;-0.10;99.90
28189;DHT22;15471;51.166;4.470;2023-02-28T01:42:42;-0.20;99.90
28189;DHT22;15471;51.166;4.470;2023-02-28T01:45:30;-0.20;99.90
28189;DHT22;15471;51.166;4.470;2023-02-28T01:48:04;-0.20;99.90
28189;DHT22;15471;51.166;4.470;2023-02-28T01:50:35;-0.20;99.90
28189;DHT22;15471;51.166;4.470;2023-02-28T01:53:05;-0.20;99.90
28189;DHT22;15471;51.166;4.470;2023-02-28T01:55:32;-0.30;99.90
28189;DHT22;15471;51.166;4.470;2023-02-28T01:58:02;-0.30;99.90
28189;DHT22;15471;51.166;4.470;2023-02-28T02:00:30;-0.30;99.90
28189;DHT22;15471;51.166;4.470;2023-02-28T02:03:11;-0.40;99.90
28189;DHT22;15471;51.166;4.470;2023-02-28T02:05:39;-0.40;99.90
28189;DHT22;15471;51.166;4.470;2023-02-28T02:08:11;-0.40;99.90
28189;DHT22;15471;51.166;4.470;2023-02-28T02:10:44;-0.40;99.90
28189;DHT22;15471;51.166;4.470;2023-02-28T02:24:29;-0.40;99.90
28189;DHT22;15471;51.166;4.470;2023-02-28T02:27:21;-0.50;99.90
28189;DHT22;15471;51.166;4.470;2023-02-28T02:38:53;-0.50;99.90
28189;DHT22;15471;51.166;4.470;2023-02-28T02:41:38;-0.50;99.90
28189;DHT22;15471;51.166;4.470;2023-02-28T02:46:52;-0.40;99.90
28189;DHT22;15471;51.166;4.470;2023-02-28T02:49:27;-0.40;99.90
28189;DHT22;15471;51.166;4.470;2023-02-28T02:51:55;-0.40;99.90
28189;DHT22;15471;51.166;4.470;2023-02-28T02:54:25;-0.40;99.90
28189;DHT22;15471;51.166;4.470;2023-02-28T02:56:59;-0.40;99.90
28189;DHT22;15471;51.166;4.470;2023-02-28T02:59:28;-0.50;99.90
28189;DHT22;15471;51.166;4.470;2023-02-28T03:01:59;-0.50;99.90
28189;DHT22;15471;51.166;4.470;2023-02-28T03:04:30;-0.50;99.90
28189;DHT22;15471;51.166;4.470;2023-02-28T03:06:58;-0.50;99.90
28189;DHT22;15471;51.166;4.470;2023-02-28T03:09:25;-0.60;99.90
28189;DHT22;15471;51.166;4.470;2023-02-28T03:11:52;-0.60;99.90
28189;DHT22;15471;51.166;4.470;2023-02-28T03:14:38;-0.60;99.90
28189;DHT22;15471;51.166;4.470;2023-02-28T03:25:39;-0.60;99.90
28189;DHT22;15471;51.166;4.470;2023-02-28T03:31:10;-0.50;99.90
28189;DHT22;15471;51.166;4.470;2023-02-28T03:33:44;-0.50;99.90
28189;DHT22;15471;51.166;4.470;2023-02-28T03:36:23;-0.60;99.90
28189;DHT22;15471;51.166;4.470;2023-02-28T03:38:59;-0.50;99.90
28189;DHT22;15471;51.166;4.470;2023-02-28T03:41:34;-0.50;99.90
28189;DHT22;15471;51.166;4.470;2023-02-28T03:44:06;-0.40;99.90
28189;DHT22;15471;51.166;4.470;2023-02-28T03:46:37;-0.40;99.90
28189;DHT22;15471;51.166;4.470;2023-02-28T03:49:12;-0.50;99.90
28189;DHT22;15471;51.166;4.470;2023-02-28T03:51:41;-0.50;99.90
28189;DHT22;15471;51.166;4.470;2023-02-28T03:54:34;-0.60;99.90
28189;DHT22;15471;51.166;4.470;2023-02-28T03:57:08;-0.60;99.90
28189;DHT22;15471;51.166;4.470;2023-02-28T03:59:42;-0.50;99.90
28189;DHT22;15471;51.166;4.470;2023-02-28T04:02:09;-0.40;99.90
28189;DHT22;15471;51.166;4.470;2023-02-28T04:04:35;-0.30;99.90
28189;DHT22;15471;51.166;4.470;2023-02-28T04:07:07;-0.30;99.90
28189;DHT22;15471;51.166;4.470;2023-02-28T04:09:34;-0.20;99.90
28189;DHT22;15471;51.166;4.470;2023-02-28T04:12:00;-0.10;99.90
28189;DHT22;15471;51.166;4.470;2023-02-28T04:14:26;0.00;99.90
28189;DHT22;15471;51.166;4.470;2023-02-28T04:16:52;0.00;99.90
28189;DHT22;15471;51.166;4.470;2023-02-28T04:19:18;0.10;99.90
28189;DHT22;15471;51.166;4.470;2023-02-28T04:21:50;0.10;99.90
28189;DHT22;15471;51.166;4.470;2023-02-28T04:24:23;0.00;99.90
28189;DHT22;15471;51.166;4.470;2023-02-28T04:26:54;0.00;99.90
28189;DHT22;15471;51.166;4.470;2023-02-28T04:29:26;0.10;99.90
28189;DHT22;15471;51.166;4.470;2023-02-28T04:31:52;0.20;99.90
28189;DHT22;15471;51.166;4.470;2023-02-28T04:34:20;0.30;99.90
28189;DHT22;15471;51.166;4.470;2023-02-28T04:36:47;0.40;99.90
28189;DHT22;15471;51.166;4.470;2023-02-28T04:39:15;0.40;99.90
28189;DHT22;15471;51.166;4.470;2023-02-28T04:41:44;0.40;99.90
28189;DHT22;15471;51.166;4.470;2023-02-28T04:44:10;0.50;99.90
28189;DHT22;15471;51.166;4.470;2023-02-28T04:46:36;0.50;99.90
28189;DHT22;15471;51.166;4.470;2023-02-28T04:49:02;0.60;99.90
28189;DHT22;15471;51.166;4.470;2023-02-28T04:51:28;0.70;99.90
28189;DHT22;15471;51.166;4.470;2023-02-28T04:53:54;0.80;99.90
28189;DHT22;15471;51.166;4.470;2023-02-28T04:56:20;0.80;99.90
28189;DHT22;15471;51.166;4.470;2023-02-28T04:58:48;0.80;99.90
28189;DHT22;15471;51.166;4.470;2023-02-28T05:01:31;0.80;99.90
28189;DHT22;15471;51.166;4.470;2023-02-28T05:03:59;0.80;99.90
28189;DHT22;15471;51.166;4.470;2023-02-28T05:06:29;0.80;99.90
28189;DHT22;15471;51.166;4.470;2023-02-28T05:08:56;0.80;99.90
28189;DHT22;15471;51.166;4.470;2023-02-28T05:11:28;0.80;99.90
28189;DHT22;15471;51.166;4.470;2023-02-28T05:13:55;0.90;99.90
28189;DHT22;15471;51.166;4.470;2023-02-28T05:16:21;1.00;99.90
28189;DHT22;15471;51.166;4.470;2023-02-28T05:18:47;1.00;99.90
28189;DHT22;15471;51.166;4.470;2023-02-28T05:21:31;1.10;99.90
28189;DHT22;15471;51.166;4.470;2023-02-28T05:23:59;1.10;99.90
28189;DHT22;15471;51.166;4.470;2023-02-28T05:26:26;1.00;99.90
28189;DHT22;15471;51.166;4.470;2023-02-28T05:28:53;1.00;99.90
28189;DHT22;15471;51.166;4.470;2023-02-28T05:31:19;1.00;99.90
28189;DHT22;15471;51.166;4.470;2023-02-28T05:33:45;1.00;99.90
28189;DHT22;15471;51.166;4.470;2023-02-28T05:36:11;1.00;99.90
28189;DHT22;15471;51.166;4.470;2023-02-28T05:38:37;1.10;99.90
28189;DHT22;15471;51.166;4.470;2023-02-28T05:41:07;1.10;99.90
28189;DHT22;15471;51.166;4.470;2023-02-28T05:43:34;1.00;99.90
28189;DHT22;15471;51.166;4.470;2023-02-28T05:46:03;1.10;99.90
28189;DHT22;15471;51.166;4.470;2023-02-28T05:48:30;1.20;99.90
28189;DHT22;15471;51.166;4.470;2023-02-28T05:50:57;1.10;99.90
28189;DHT22;15471;51.166;4.470;2023-02-28T05:53:23;1.10;99.90
28189;DHT22;15471;51.166;4.470;2023-02-28T05:55:49;1.10;99.90
28189;DHT22;15471;51.166;4.470;2023-02-28T05:58:14;1.30;99.90
28189;DHT22;15471;51.166;4.470;2023-02-28T06:00:40;1.30;99.90
28189;DHT22;15471;51.166;4.470;2023-02-28T06:03:06;1.40;99.90
28189;DHT22;15471;51.166;4.470;2023-02-28T06:05:31;1.40;99.90
28189;DHT22;15471;51.166;4.470;2023-02-28T06:07:58;1.40;99.90
28189;DHT22;15471;51.166;4.470;2023-02-28T06:10:24;1.30;99.90
28189;DHT22;15471;51.166;4.470;2023-02-28T06:12:50;1.30;99.90
28189;DHT22;15471;51.166;4.470;2023-02-28T06:15:16;1.30;99.90
28189;DHT22;15471;51.166;4.470;2023-02-28T06:17:43;1.30;99.90
28189;DHT22;15471;51.166;4.470;2023-02-28T06:20:10;1.30;99.90
28189;DHT22;15471;51.166;4.470;2023-02-28T06:22:39;1.50;99.90
28189;DHT22;15471;51.166;4.470;2023-02-28T06:25:05;1.40;99.90
28189;DHT22;15471;51.166;4.470;2023-02-28T06:27:32;1.30;99.90
28189;DHT22;15471;51.166;4.470;2023-02-28T06:29:59;1.50;99.90
28189;DHT22;15471;51.166;4.470;2023-02-28T06:32:25;1.50;99.90
28189;DHT22;15471;51.166;4.470;2023-02-28T06:34:51;1.60;99.90
28189;DHT22;15471;51.166;4.470;2023-02-28T06:37:18;1.50;99.90
28189;DHT22;15471;51.166;4.470;2023-02-28T06:39:44;1.50;99.90
28189;DHT22;15471;51.166;4.470;2023-02-28T06:42:10;1.40;99.90
28189;DHT22;15471;51.166;4.470;2023-02-28T06:44:36;1.40;99.90
28189;DHT22;15471;51.166;4.470;2023-02-28T06:47:03;1.50;99.90
28189;DHT22;15471;51.166;4.470;2023-02-28T06:49:33;1.50;99.90
28189;DHT22;15471;51.166;4.470;2023-02-28T06:52:00;1.60;99.90
28189;DHT22;15471;51.166;4.470;2023-02-28T06:54:29;1.60;99.90
28189;DHT22;15471;51.166;4.470;2023-02-28T06:56:56;1.60;99.90
28189;DHT22;15471;51.166;4.470;2023-02-28T06:59:22;1.70;99.90
28189;DHT22;15471;51.166;4.470;2023-02-28T07:01:48;1.70;99.90
28189;DHT22;15471;51.166;4.470;2023-02-28T07:04:14;1.70;99.90
28189;DHT22;15471;51.166;4.470;2023-02-28T07:06:40;1.70;99.90
28189;DHT22;15471;51.166;4.470;2023-02-28T07:09:10;1.70;99.90
28189;DHT22;15471;51.166;4.470;2023-02-28T07:11:36;1.70;99.90
28189;DHT22;15471;51.166;4.470;2023-02-28T07:14:02;1.90;99.90
28189;DHT22;15471;51.166;4.470;2023-02-28T07:16:27;2.00;99.90
28189;DHT22;15471;51.166;4.470;2023-02-28T07:18:54;2.00;99.90
28189;DHT22;15471;51.166;4.470;2023-02-28T07:21:21;2.00;99.90
28189;DHT22;15471;51.166;4.470;2023-02-28T07:23:47;2.10;99.90
28189;DHT22;15471;51.166;4.470;2023-02-28T07:26:15;2.10;99.90
28189;DHT22;15471;51.166;4.470;2023-02-28T07:28:42;2.10;99.90
28189;DHT22;15471;51.166;4.470;2023-02-28T07:31:09;2.20;99.90
28189;DHT22;15471;51.166;4.470;2023-02-28T07:33:35;2.20;99.90
28189;DHT22;15471;51.166;4.470;2023-02-28T07:36:03;2.30;99.90
28189;DHT22;15471;51.166;4.470;2023-02-28T07:38:30;2.30;99.90
28189;DHT22;15471;51.166;4.470;2023-02-28T07:40:55;2.50;99.90
28189;DHT22;15471;51.166;4.470;2023-02-28T07:43:21;2.60;99.90
28189;DHT22;15471;51.166;4.470;2023-02-28T07:45:47;2.50;99.90
28189;DHT22;15471;51.166;4.470;2023-02-28T07:48:13;2.50;99.90
28189;DHT22;15471;51.166;4.470;2023-02-28T07:50:39;2.60;99.90
28189;DHT22;15471;51.166;4.470;2023-02-28T07:53:04;2.60;99.90
28189;DHT22;15471;51.166;4.470;2023-02-28T07:55:30;2.60;99.90
28189;DHT22;15471;51.166;4.470;2023-02-28T07:57:57;2.60;99.90
28189;DHT22;15471;51.166;4.470;2023-02-28T08:00:23;2.80;99.90
28189;DHT22;15471;51.166;4.470;2023-02-28T08:02:49;2.80;99.90
28189;DHT22;15471;51.166;4.470;2023-02-28T08:05:16;2.90;99.90
28189;DHT22;15471;51.166;4.470;2023-02-28T08:07:41;2.90;99.90
28189;DHT22;15471;51.166;4.470;2023-02-28T08:10:08;3.00;99.90
28189;DHT22;15471;51.166;4.470;2023-02-28T08:12:35;3.10;99.90
28189;DHT22;15471;51.166;4.470;2023-02-28T08:15:01;3.30;99.90
28189;DHT22;15471;51.166;4.470;2023-02-28T08:17:27;3.20;99.90
28189;DHT22;15471;51.166;4.470;2023-02-28T08:19:53;3.20;99.90
28189;DHT22;15471;51.166;4.470;2023-02-28T08:22:18;3.30;99.90
28189;DHT22;15471;51.166;4.470;2023-02-28T08:24:44;3.30;99.90
28189;DHT22;15471;51.166;4.470;2023-02-28T08:27:10;3.30;99.90
28189;DHT22;15471;51.166;4.470;2023-02-28T08:29:37;3.30;99.90
28189;DHT22;15471;51.166;4.470;2023-02-28T08:32:04;3.50;99.90
28189;DHT22;15471;51.166;4.470;2023-02-28T08:34:30;3.60;99.90
28189;DHT22;15471;51.166;4.470;2023-02-28T08:36:56;3.70;99.90
28189;DHT22;15471;51.166;4.470;2023-02-28T08:39:22;3.80;99.90
28189;DHT22;15471;51.166;4.470;2023-02-28T08:41:47;3.70;99.90
28189;DHT22;15471;51.166;4.470;2023-02-28T08:44:13;3.60;99.90
28189;DHT22;15471;51.166;4.470;2023-02-28T08:46:39;3.50;99.90
28189;DHT22;15471;51.166;4.470;2023-02-28T08:49:05;3.60;99.90
28189;DHT22;15471;51.166;4.470;2023-02-28T08:51:30;3.80;99.90
28189;DHT22;15471;51.166;4.470;2023-02-28T08:53:59;3.90;99.90
28189;DHT22;15471;51.166;4.470;2023-02-28T08:56:26;4.00;99.90
28189;DHT22;15471;51.166;4.470;2023-02-28T08:58:55;4.00;99.90
28189;DHT22;15471;51.166;4.470;2023-02-28T09:01:23;4.20;99.90
28189;DHT22;15471;51.166;4.470;2023-02-28T09:03:50;4.50;99.90
28189;DHT22;15471;51.166;4.470;2023-02-28T09:06:17;4.70;99.90
28189;DHT22;15471;51.166;4.470;2023-02-28T09:08:44;4.80;99.90
28189;DHT22;15471;51.166;4.470;2023-02-28T09:11:10;4.90;99.90
28189;DHT22;15471;51.166;4.470;2023-02-28T09:13:37;4.80;99.90
28189;DHT22;15471;51.166;4.470;2023-02-28T09:16:05;4.70;99.90
28189;DHT22;15471;51.166;4.470;2023-02-28T09:18:31;4.50;99.90
28189;DHT22;15471;51.166;4.470;2023-02-28T09:20:58;4.50;99.90
28189;DHT22;15471;51.166;4.470;2023-02-28T09:23:24;4.40;99.90
28189;DHT22;15471;51.166;4.470;2023-02-28T09:25:53;4.20;99.90
28189;DHT22;15471;51.166;4.470;2023-02-28T09:28:20;4.20;99.90
28189;DHT22;15471;51.166;4.470;2023-02-28T09:30:49;4.60;99.90
28189;DHT22;15471;51.166;4.470;2023-02-28T09:33:16;5.00;99.90
28189;DHT22;15471;51.166;4.470;2023-02-28T09:35:42;5.20;99.90
28189;DHT22;15471;51.166;4.470;2023-02-28T09:38:09;5.20;99.90
28189;DHT22;15471;51.166;4.470;2023-02-28T09:40:38;5.40;99.90
28189;DHT22;15471;51.166;4.470;2023-02-28T09:43:05;5.30;99.90
28189;DHT22;15471;51.166;4.470;2023-02-28T09:45:35;5.20;99.90
28189;DHT22;15471;51.166;4.470;2023-02-28T09:48:27;5.40;99.90
28189;DHT22;15471;51.166;4.470;2023-02-28T09:50:53;5.40;99.90
28189;DHT22;15471;51.166;4.470;2023-02-28T09:53:39;5.70;99.90
28189;DHT22;15471;51.166;4.470;2023-02-28T09:56:11;5.90;99.90
28189;DHT22;15471;51.166;4.470;2023-02-28T10:04:05;6.40;99.90
28189;DHT22;15471;51.166;4.470;2023-02-28T10:06:41;6.40;99.90
28189;DHT22;15471;51.166;4.470;2023-02-28T10:09:15;6.40;99.90
28189;DHT22;15471;51.166;4.470;2023-02-28T10:11:44;6.40;99.90
28189;DHT22;15471;51.166;4.470;2023-02-28T10:14:24;6.40;99.40
28189;DHT22;15471;51.166;4.470;2023-02-28T10:22:38;6.10;99.30
28189;DHT22;15471;51.166;4.470;2023-02-28T10:25:20;5.70;98.80
28189;DHT22;15471;51.166;4.470;2023-02-28T10:27:47;5.70;98.90
28189;DHT22;15471;51.166;4.470;2023-02-28T10:30:13;5.60;99.00
28189;DHT22;15471;51.166;4.470;2023-02-28T10:32:49;5.60;98.80
28189;DHT22;15471;51.166;4.470;2023-02-28T10:35:19;5.60;98.90
28189;DHT22;15471;51.166;4.470;2023-02-28T10:37:54;5.70;99.00
28189;DHT22;15471;51.166;4.470;2023-02-28T10:42:56;5.60;98.20
28189;DHT22;15471;51.166;4.470;2023-02-28T10:45:23;5.50;98.20
28189;DHT22;15471;51.166;4.470;2023-02-28T11:01:42;5.10;97.10
28189;DHT22;15471;51.166;4.470;2023-02-28T11:04:33;4.90;95.50
28189;DHT22;15471;51.166;4.470;2023-02-28T11:07:19;4.80;96.00
28189;DHT22;15471;51.166;4.470;2023-02-28T11:09:48;4.90;95.50
28189;DHT22;15471;51.166;4.470;2023-02-28T11:12:28;5.00;95.20
28189;DHT22;15471;51.166;4.470;2023-02-28T11:15:01;5.10;95.50
28189;DHT22;15471;51.166;4.470;2023-02-28T11:17:30;5.20;94.80
28189;DHT22;15471;51.166;4.470;2023-02-28T11:20:04;5.20;94.50
28189;DHT22;15471;51.166;4.470;2023-02-28T11:22:37;5.10;94.30
28189;DHT22;15471;51.166;4.470;2023-02-28T11:25:16;5.00;93.80
28189;DHT22;15471;51.166;4.470;2023-02-28T11:27:46;5.00;94.40
28189;DHT22;15471;51.166;4.470;2023-02-28T11:30:25;5.10;93.80
28189;DHT22;15471;51.166;4.470;2023-02-28T11:32:53;5.00;94.30
28189;DHT22;15471;51.166;4.470;2023-02-28T11:35:39;5.00;94.20
28189;DHT22;15471;51.166;4.470;2023-02-28T11:38:10;4.90;94.20
28189;DHT22;15471;51.166;4.470;2023-02-28T11:48:53;5.30;94.00
28189;DHT22;15471;51.166;4.470;2023-02-28T11:51:54;5.40;94.80
28189;DHT22;15471;51.166;4.470;2023-02-28T11:59:58;5.60;94.00
28189;DHT22;15471;51.166;4.470;2023-02-28T12:02:42;5.70;93.80
28189;DHT22;15471;51.166;4.470;2023-02-28T12:05:21;5.70;92.70
28189;DHT22;15471;51.166;4.470;2023-02-28T12:13:26;5.40;91.40
28189;DHT22;15471;51.166;4.470;2023-02-28T12:16:00;5.40;92.50
28189;DHT22;15471;51.166;4.470;2023-02-28T12:19:17;5.30;91.60
28189;DHT22;15471;51.166;4.470;2023-02-28T12:21:47;5.30;91.90
28189;DHT22;15471;51.166;4.470;2023-02-28T12:27:19;5.30;92.80
28189;DHT22;15471;51.166;4.470;2023-02-28T12:29:57;5.50;92.50
28189;DHT22;15471;51.166;4.470;2023-02-28T12:32:42;5.60;91.00
28189;DHT22;15471;51.166;4.470;2023-02-28T12:35:14;5.50;92.00
28189;DHT22;15471;51.166;4.470;2023-02-28T12:40:23;5.70;92.20
28189;DHT22;15471;51.166;4.470;2023-02-28T12:42:58;5.80;92.40
28189;DHT22;15471;51.166;4.470;2023-02-28T12:45:50;5.70;91.20
28189;DHT22;15471;51.166;4.470;2023-02-28T12:48:26;5.70;92.00
28189;DHT22;15471;51.166;4.470;2023-02-28T12:50:53;5.60;90.90
28189;DHT22;15471;51.166;4.470;2023-02-28T12:56:34;5.70;91.30
28189;DHT22;15471;51.166;4.470;2023-02-28T12:59:13;5.70;90.20
28189;DHT22;15471;51.166;4.470;2023-02-28T13:02:09;5.70;90.20
28189;DHT22;15471;51.166;4.470;2023-02-28T13:10:05;5.70;90.20
28189;DHT22;15471;51.166;4.470;2023-02-28T13:12:34;5.50;90.50
28189;DHT22;15471;51.166;4.470;2023-02-28T13:15:08;5.60;91.40
28189;DHT22;15471;51.166;4.470;2023-02-28T13:17:39;5.70;90.70
28189;DHT22;15471;51.166;4.470;2023-02-28T13:20:24;5.70;90.50
28189;DHT22;15471;51.166;4.470;2023-02-28T13:22:52;5.80;91.50
28189;DHT22;15471;51.166;4.470;2023-02-28T13:28:01;5.90;90.40
28189;DHT22;15471;51.166;4.470;2023-02-28T13:33:33;5.70;91.20
28189;DHT22;15471;51.166;4.470;2023-02-28T13:41:43;5.70;91.90
28189;DHT22;15471;51.166;4.470;2023-02-28T13:44:19;5.70;91.20
28189;DHT22;15471;51.166;4.470;2023-02-28T13:51:52;5.80;92.10
28189;DHT22;15471;51.166;4.470;2023-02-28T13:54:21;6.00;92.30
28189;DHT22;15471;51.166;4.470;2023-02-28T14:05:18;6.30;91.60
28189;DHT22;15471;51.166;4.470;2023-02-28T14:07:52;6.20;91.40
28189;DHT22;15471;51.166;4.470;2023-02-28T14:10:31;6.30;92.30
28189;DHT22;15471;51.166;4.470;2023-02-28T14:16:00;6.00;91.80
28189;DHT22;15471;51.166;4.470;2023-02-28T14:18:37;6.10;91.60
28189;DHT22;15471;51.166;4.470;2023-02-28T14:32:47;5.80;92.20
28189;DHT22;15471;51.166;4.470;2023-02-28T14:36:04;5.90;92.70
28189;DHT22;15471;51.166;4.470;2023-02-28T14:38:53;6.00;93.20
28189;DHT22;15471;51.166;4.470;2023-02-28T14:43:54;6.30;93.00
28189;DHT22;15471;51.166;4.470;2023-02-28T14:46:21;6.30;92.10
28189;DHT22;15471;51.166;4.470;2023-02-28T14:48:49;6.20;92.30
28189;DHT22;15471;51.166;4.470;2023-02-28T14:51:21;6.20;92.50
28189;DHT22;15471;51.166;4.470;2023-02-28T14:53:59;6.10;91.80
28189;DHT22;15471;51.166;4.470;2023-02-28T14:56:37;6.10;92.10
28189;DHT22;15471;51.166;4.470;2023-02-28T14:59:05;6.10;93.00
28189;DHT22;15471;51.166;4.470;2023-02-28T15:01:44;6.10;92.50
28189;DHT22;15471;51.166;4.470;2023-02-28T15:04:22;6.20;92.20
28189;DHT22;15471;51.166;4.470;2023-02-28T15:07:13;6.20;92.80
28189;DHT22;15471;51.166;4.470;2023-02-28T15:09:40;6.20;92.20
28189;DHT22;15471;51.166;4.470;2023-02-28T15:12:06;6.10;92.50
28189;DHT22;15471;51.166;4.470;2023-02-28T15:14:43;6.10;92.90
28189;DHT22;15471;51.166;4.470;2023-02-28T15:17:17;6.20;92.80
28189;DHT22;15471;51.166;4.470;2023-02-28T15:19:49;6.40;92.60
28189;DHT22;15471;51.166;4.470;2023-02-28T15:22:20;6.40;92.80
28189;DHT22;15471;51.166;4.470;2023-02-28T15:24:52;6.20;92.50
28189;DHT22;15471;51.166;4.470;2023-02-28T15:27:27;6.00;91.90
28189;DHT22;15471;51.166;4.470;2023-02-28T15:29:58;5.90;93.00
28189;DHT22;15471;51.166;4.470;2023-02-28T15:32:28;5.90;93.60
28189;DHT22;15471;51.166;4.470;2023-02-28T15:34:55;6.00;93.40
28189;DHT22;15471;51.166;4.470;2023-02-28T15:37:48;6.00;93.60
28189;DHT22;15471;51.166;4.470;2023-02-28T15:40:26;6.10;93.20
28189;DHT22;15471;51.166;4.470;2023-02-28T15:43:11;6.00;93.60
28189;DHT22;15471;51.166;4.470;2023-02-28T15:45:47;6.00;93.00
28189;DHT22;15471;51.166;4.470;2023-02-28T15:48:25;6.10;93.50
28189;DHT22;15471;51.166;4.470;2023-02-28T15:50:57;6.10;93.10
28189;DHT22;15471;51.166;4.470;2023-02-28T15:53:31;6.10;92.70
28189;DHT22;15471;51.166;4.470;2023-02-28T15:56:04;6.10;92.80
28189;DHT22;15471;51.166;4.470;2023-02-28T15:58:30;6.10;92.70
28189;DHT22;15471;51.166;4.470;2023-02-28T16:01:05;6.00;92.50
28189;DHT22;15471;51.166;4.470;2023-02-28T16:03:42;5.90;93.40
28189;DHT22;15471;51.166;4.470;2023-02-28T16:06:24;5.90;93.70
28189;DHT22;15471;51.166;4.470;2023-02-28T16:08:51;6.00;93.90
28189;DHT22;15471;51.166;4.470;2023-02-28T16:11:20;6.00;93.80
28189;DHT22;15471;51.166;4.470;2023-02-28T16:13:46;6.00;93.80
28189;DHT22;15471;51.166;4.470;2023-02-28T16:16:23;6.10;93.80
28189;DHT22;15471;51.166;4.470;2023-02-28T16:18:50;6.10;93.70
28189;DHT22;15471;51.166;4.470;2023-02-28T16:21:16;5.90;93.60
28189;DHT22;15471;51.166;4.470;2023-02-28T16:23:42;5.90;94.40
28189;DHT22;15471;51.166;4.470;2023-02-28T16:26:16;5.80;94.40
28189;DHT22;15471;51.166;4.470;2023-02-28T16:28:44;5.80;94.60
28189;DHT22;15471;51.166;4.470;2023-02-28T16:31:11;5.80;94.30
28189;DHT22;15471;51.166;4.470;2023-02-28T16:33:42;5.70;94.00
28189;DHT22;15471;51.166;4.470;2023-02-28T16:36:21;5.60;94.50
28189;DHT22;15471;51.166;4.470;2023-02-28T16:38:47;5.50;94.80
28189;DHT22;15471;51.166;4.470;2023-02-28T16:41:25;5.60;95.10
28189;DHT22;15471;51.166;4.470;2023-02-28T16:43:54;5.60;94.80
28189;DHT22;15471;51.166;4.470;2023-02-28T16:46:27;5.60;95.00
28189;DHT22;15471;51.166;4.470;2023-02-28T16:48:55;5.50;95.00
28189;DHT22;15471;51.166;4.470;2023-02-28T16:51:21;5.40;94.80
28189;DHT22;15471;51.166;4.470;2023-02-28T16:53:47;5.40;95.70
28189;DHT22;15471;51.166;4.470;2023-02-28T16:56:21;5.30;95.60
28189;DHT22;15471;51.166;4.470;2023-02-28T16:58:49;5.20;95.60
28189;DHT22;15471;51.166;4.470;2023-02-28T17:01:15;5.10;95.70
28189;DHT22;15471;51.166;4.470;2023-02-28T17:03:42;5.10;96.20
28189;DHT22;15471;51.166;4.470;2023-02-28T17:06:23;5.00;96.70
28189;DHT22;15471;51.166;4.470;2023-02-28T17:08:50;4.90;96.40
28189;DHT22;15471;51.166;4.470;2023-02-28T17:11:17;4.80;96.70
28189;DHT22;15471;51.166;4.470;2023-02-28T17:13:43;4.80;96.70
28189;DHT22;15471;51.166;4.470;2023-02-28T17:16:28;4.70;96.90
28189;DHT22;15471;51.166;4.470;2023-02-28T17:18:57;4.70;97.30
28189;DHT22;15471;51.166;4.470;2023-02-28T17:21:23;4.60;97.60
28189;DHT22;15471;51.166;4.470;2023-02-28T17:23:48;4.60;97.90
28189;DHT22;15471;51.166;4.470;2023-02-28T17:26:15;4.50;98.00
28189;DHT22;15471;51.166;4.470;2023-02-28T17:28:43;4.40;98.20
28189;DHT22;15471;51.166;4.470;2023-02-28T17:31:09;4.30;98.20
28189;DHT22;15471;51.166;4.470;2023-02-28T17:33:35;4.30;98.50
28189;DHT22;15471;51.166;4.470;2023-02-28T17:36:01;4.30;98.60
28189;DHT22;15471;51.166;4.470;2023-02-28T17:38:27;4.20;98.80
28189;DHT22;15471;51.166;4.470;2023-02-28T17:40:53;4.10;98.80
28189;DHT22;15471;51.166;4.470;2023-02-28T17:43:31;4.00;99.30
28189;DHT22;15471;51.166;4.470;2023-02-28T17:45:57;4.00;99.40
28189;DHT22;15471;51.166;4.470;2023-02-28T17:48:24;3.90;99.60
28189;DHT22;15471;51.166;4.470;2023-02-28T17:50:50;3.80;99.90
28189;DHT22;15471;51.166;4.470;2023-02-28T17:53:16;3.70;99.90
28189;DHT22;15471;51.166;4.470;2023-02-28T17:55:41;3.70;99.90
28189;DHT22;15471;51.166;4.470;2023-02-28T17:58:10;3.60;99.90
28189;DHT22;15471;51.166;4.470;2023-02-28T18:00:37;3.60;99.90
28189;DHT22;15471;51.166;4.470;2023-02-28T18:03:03;3.50;99.90
28189;DHT22;15471;51.166;4.470;2023-02-28T18:05:29;3.50;99.90
28189;DHT22;15471;51.166;4.470;2023-02-28T18:07:57;3.50;99.90
28189;DHT22;15471;51.166;4.470;2023-02-28T18:10:23;3.40;99.90
28189;DHT22;15471;51.166;4.470;2023-02-28T18:12:52;3.40;99.90
28189;DHT22;15471;51.166;4.470;2023-02-28T18:15:20;3.40;99.90
28189;DHT22;15471;51.166;4.470;2023-02-28T18:17:48;3.30;99.90